Terminal Aerodrome Forecast
Issued by NWS Charleston, WV

Current Version | Previous Version | Graphics & Text | Print | Product List | Glossary On
Versions: 1 2 3 4 5 6 7 8 9 10 11 12 13 14 15 16 17 18 19 20 21 22 23 24
000
FTUS41 KRLX 310200 AAA
TAFBKW
TAF AMD
KBKW 310244Z 3103/3124 18008KT P6SM SCT250
     FM311000 00000KT P6SM -SHRA BKN090
      TEMPO 3110/3113 5SM SHRA
     FM311800 23009KT 6SM SHRA VCTS OVC040CB PROB30 3119/3121 2SM
      -TSRA OVC050CB
     FM312200 24005KT P6SM BKN060=

USA.gov is the U.S. government's official web portal to all federal, state and local government web resources and services.